Salina, Kansas
Current Conditions -  °F | °C
As of 7:11 AM on Saturday 25 Oct 2014 (Local Time) from KSLN Reporting Station
Haze Haze  
Wind Chill: 12°   Ceiling: 300
Heat Index: 12°   Visibility: 0.75mi
Dew Point: 11°   Wind: 5mph
Humidity: 96%   Direction: 190°S
Pressure: 30.04"   Gusts: NA
Location:  38.84°N, 97.61°W
Report Text: KSLN 251211Z 19004KT 3/4SM BR VV003 12/11 A3004 RMK AO2 T01170111
Loading
Personal Weather Stations






























Interactive Weather Map New forecast layout! Learn more

10-Day Weather Forecast

Advertisements
Track Severe Weather on mobile